createdAt,value
2018-09-28T00:02:20.967Z,99.90
2018-09-28T00:04:49.752Z,99.90
2018-09-28T00:07:18.325Z,99.90
2018-09-28T00:09:46.971Z,99.90
2018-09-28T00:12:15.531Z,99.90
2018-09-28T00:14:44.090Z,99.90
2018-09-28T00:17:12.687Z,99.90
2018-09-28T00:19:41.292Z,99.90
2018-09-28T00:22:09.929Z,99.90
2018-09-28T00:24:38.600Z,99.90
2018-09-28T00:27:07.137Z,99.90
2018-09-28T00:29:35.771Z,99.90
2018-09-28T00:32:04.400Z,99.90
2018-09-28T00:34:33.051Z,99.90
2018-09-28T00:37:01.677Z,99.90
2018-09-28T00:39:30.278Z,99.90
2018-09-28T00:41:58.975Z,99.90
2018-09-28T00:44:27.606Z,99.90
2018-09-28T00:46:56.129Z,99.90
2018-09-28T00:49:24.839Z,99.90
2018-09-28T00:51:53.394Z,99.90
2018-09-28T00:54:21.977Z,99.90
2018-09-28T00:56:50.573Z,99.90
2018-09-28T00:59:19.307Z,99.90
2018-09-28T01:01:48.027Z,99.90
2018-09-28T01:04:16.664Z,99.90
2018-09-28T01:06:45.315Z,99.90
2018-09-28T01:09:15.147Z,99.90
2018-09-28T01:11:43.750Z,99.90
2018-09-28T01:14:12.419Z,99.90
2018-09-28T01:16:41.139Z,99.90
2018-09-28T01:19:09.776Z,99.90
2018-09-28T01:21:38.504Z,99.90
2018-09-28T01:24:06.728Z,99.90
2018-09-28T01:26:35.309Z,99.90
2018-09-28T01:29:04.007Z,99.90
2018-09-28T01:31:32.617Z,99.90
2018-09-28T01:34:01.260Z,99.90
2018-09-28T01:36:29.918Z,99.90
2018-09-28T01:38:58.600Z,99.90
2018-09-28T01:41:27.211Z,99.90
2018-09-28T01:43:55.897Z,99.90
2018-09-28T01:46:24.467Z,99.90
2018-09-28T01:48:53.021Z,99.90
2018-09-28T01:51:21.572Z,99.90
2018-09-28T01:53:50.213Z,99.90
2018-09-28T01:56:18.823Z,99.90
2018-09-28T01:58:47.410Z,99.90
2018-09-28T02:01:15.970Z,99.90
2018-09-28T02:03:44.521Z,99.90
2018-09-28T02:06:13.126Z,99.90
2018-09-28T02:08:43.381Z,99.90
2018-09-28T02:11:12.005Z,99.90
2018-09-28T02:13:40.617Z,99.90
2018-09-28T02:16:09.252Z,99.90
2018-09-28T02:18:37.832Z,99.90
2018-09-28T02:21:06.456Z,99.90
2018-09-28T02:23:35.068Z,99.90
2018-09-28T02:26:03.641Z,99.90
2018-09-28T02:28:32.197Z,99.90
2018-09-28T02:31:00.795Z,99.90
2018-09-28T02:33:29.369Z,99.90
2018-09-28T02:35:57.936Z,99.90
2018-09-28T02:38:27.181Z,99.90
2018-09-28T02:40:55.805Z,99.90
2018-09-28T02:43:24.436Z,99.90
2018-09-28T02:45:53.089Z,99.90
2018-09-28T02:48:22.428Z,99.90
2018-09-28T02:50:51.067Z,99.90
2018-09-28T02:53:19.790Z,99.90
2018-09-28T02:55:49.443Z,99.90
2018-09-28T02:58:18.913Z,99.90
2018-09-28T03:00:48.289Z,99.90
2018-09-28T03:03:16.996Z,99.90
2018-09-28T03:05:45.580Z,99.90
2018-09-28T03:08:14.794Z,99.90
2018-09-28T03:10:43.454Z,99.90
2018-09-28T03:13:12.005Z,99.90
2018-09-28T03:15:40.594Z,99.90
2018-09-28T03:18:13.011Z,99.90
2018-09-28T03:20:41.621Z,99.90
2018-09-28T03:23:10.170Z,99.90
2018-09-28T03:25:39.402Z,99.90
2018-09-28T03:28:08.201Z,99.90
2018-09-28T03:30:37.821Z,99.90
2018-09-28T03:33:06.446Z,99.90
2018-09-28T03:35:35.077Z,99.90
2018-09-28T03:38:04.551Z,99.90
2018-09-28T03:40:33.154Z,99.90
2018-09-28T03:43:01.721Z,99.90
2018-09-28T03:45:30.373Z,99.90
2018-09-28T03:47:58.974Z,99.90
2018-09-28T03:50:28.527Z,99.90
2018-09-28T03:52:57.148Z,99.90
2018-09-28T03:55:25.737Z,99.90
2018-09-28T03:57:54.340Z,99.90
2018-09-28T04:00:22.933Z,99.90
2018-09-28T04:02:51.588Z,99.90
2018-09-28T04:05:20.208Z,99.90
2018-09-28T04:07:49.213Z,99.90
2018-09-28T04:10:17.788Z,99.90
2018-09-28T04:12:46.361Z,99.90
2018-09-28T04:15:15.038Z,99.90
2018-09-28T04:17:43.643Z,99.90
2018-09-28T04:20:12.260Z,99.90
2018-09-28T04:22:40.832Z,99.90
2018-09-28T04:25:09.544Z,99.90
2018-09-28T04:27:38.137Z,99.90
2018-09-28T04:30:07.037Z,99.90
2018-09-28T04:32:35.592Z,99.90
2018-09-28T04:35:04.196Z,99.90
2018-09-28T04:37:32.818Z,99.90
2018-09-28T04:40:01.397Z,99.90
2018-09-28T04:42:30.968Z,99.90
2018-09-28T04:44:59.597Z,99.90
2018-09-28T04:47:28.149Z,99.90
2018-09-28T04:49:56.760Z,99.90
2018-09-28T04:52:25.344Z,99.90
2018-09-28T04:54:53.988Z,99.90
2018-09-28T04:57:22.595Z,99.90
2018-09-28T04:59:51.319Z,99.90
2018-09-28T05:02:19.909Z,99.90
2018-09-28T05:04:48.513Z,99.90
2018-09-28T05:07:17.144Z,99.90
2018-09-28T05:09:45.776Z,99.90
2018-09-28T05:12:14.371Z,99.90
2018-09-28T05:14:42.973Z,99.90
2018-09-28T05:17:11.603Z,99.90
2018-09-28T05:19:40.238Z,99.90
2018-09-28T05:22:08.796Z,99.90
2018-09-28T05:24:37.398Z,99.90
2018-09-28T05:27:05.969Z,99.90
2018-09-28T05:29:34.541Z,99.90
2018-09-28T05:32:03.783Z,99.90
2018-09-28T05:34:32.411Z,99.90
2018-09-28T05:37:01.144Z,99.90
2018-09-28T05:39:29.891Z,99.90
2018-09-28T05:41:58.500Z,99.90
2018-09-28T05:44:27.122Z,99.90
2018-09-28T05:46:55.733Z,99.90
2018-09-28T05:49:24.298Z,99.90
2018-09-28T05:51:53.613Z,99.90
2018-09-28T05:54:22.232Z,99.90
2018-09-28T05:56:50.917Z,99.90
2018-09-28T06:00:27.550Z,99.90
2018-09-28T06:03:01.470Z,99.90
2018-09-28T06:05:37.583Z,99.90
2018-09-28T06:08:06.043Z,99.90
2018-09-28T06:10:35.498Z,99.90
2018-09-28T06:13:04.073Z,99.90
2018-09-28T06:15:32.791Z,99.90
2018-09-28T06:18:01.459Z,99.90
2018-09-28T06:20:30.011Z,99.90
2018-09-28T06:22:58.561Z,99.90
2018-09-28T06:25:27.128Z,99.90
2018-09-28T06:27:55.724Z,99.90
2018-09-28T06:30:24.864Z,99.90
2018-09-28T06:32:53.502Z,99.90
2018-09-28T06:35:22.099Z,99.90
2018-09-28T06:37:50.901Z,99.90
2018-09-28T06:40:19.436Z,99.90
2018-09-28T06:42:48.106Z,99.90
2018-09-28T06:45:16.660Z,99.90
2018-09-28T06:47:45.307Z,99.90
2018-09-28T06:50:13.952Z,99.90
2018-09-28T06:52:42.583Z,99.90
2018-09-28T06:55:11.191Z,99.90
2018-09-28T06:57:39.828Z,99.90
2018-09-28T07:00:09.250Z,99.90
2018-09-28T07:02:37.886Z,99.90
2018-09-28T07:05:06.538Z,99.90
2018-09-28T07:07:35.159Z,99.90
2018-09-28T07:10:03.849Z,99.90
2018-09-28T07:12:32.456Z,99.90
2018-09-28T07:15:01.013Z,99.90
2018-09-28T07:17:29.652Z,99.90
2018-09-28T07:19:58.246Z,99.90
2018-09-28T07:22:26.857Z,99.90
2018-09-28T07:24:55.580Z,99.90
2018-09-28T07:27:24.166Z,99.90
2018-09-28T07:29:52.871Z,99.90
2018-09-28T07:32:21.406Z,99.90
2018-09-28T07:34:50.321Z,99.90
2018-09-28T07:37:18.956Z,99.90
2018-09-28T07:39:47.453Z,99.90
2018-09-28T07:42:16.149Z,99.90
2018-09-28T07:44:44.693Z,99.90
2018-09-28T07:47:13.285Z,99.90
2018-09-28T07:49:41.858Z,99.90
2018-09-28T07:54:38.666Z,99.90
2018-09-28T07:57:07.270Z,99.90
2018-09-28T07:59:35.857Z,99.90
2018-09-28T08:02:04.436Z,99.90
2018-09-28T08:04:33.000Z,99.90
2018-09-28T08:07:01.579Z,99.90
2018-09-28T08:09:30.224Z,99.90
2018-09-28T08:11:58.818Z,99.90
2018-09-28T08:14:27.442Z,99.90
2018-09-28T08:16:56.020Z,99.90
2018-09-28T08:19:24.619Z,99.90
2018-09-28T08:21:53.232Z,99.90
2018-09-28T08:24:21.821Z,99.90
2018-09-28T08:26:50.401Z,99.90
2018-09-28T08:29:19.013Z,99.90
2018-09-28T08:31:47.559Z,99.90
2018-09-28T08:34:16.138Z,99.90
2018-09-28T08:36:44.805Z,99.90
2018-09-28T08:39:13.363Z,99.90
2018-09-28T08:41:42.010Z,99.90
2018-09-28T08:44:10.582Z,99.90
2018-09-28T08:46:39.182Z,99.90
2018-09-28T08:49:07.801Z,99.90
2018-09-28T08:51:36.409Z,99.90
2018-09-28T08:54:04.983Z,99.90
2018-09-28T08:56:33.578Z,99.90
2018-09-28T09:01:30.376Z,99.90
2018-09-28T09:03:58.957Z,99.90
2018-09-28T09:06:27.641Z,99.90
2018-09-28T09:08:56.252Z,99.90
2018-09-28T09:11:24.835Z,99.90
2018-09-28T09:13:53.443Z,99.90
2018-09-28T09:16:22.029Z,99.90
2018-09-28T09:18:50.640Z,99.90
2018-09-28T09:21:19.412Z,99.90
2018-09-28T09:23:48.041Z,99.90
2018-09-28T09:26:16.648Z,99.90
2018-09-28T09:28:45.265Z,99.90
2018-09-28T09:31:13.816Z,99.90
2018-09-28T09:33:42.421Z,99.90
2018-09-28T09:36:11.040Z,99.90
2018-09-28T09:38:42.603Z,99.90
2018-09-28T09:41:11.416Z,99.90
2018-09-28T09:43:39.998Z,99.90
2018-09-28T09:46:08.618Z,99.90
2018-09-28T09:48:37.227Z,99.90
2018-09-28T09:51:05.810Z,99.90
2018-09-28T09:53:34.396Z,99.90
2018-09-28T09:56:02.970Z,99.90
2018-09-28T09:58:31.537Z,99.90
2018-09-28T10:01:05.414Z,99.90
2018-09-28T10:03:40.062Z,99.90
2018-09-28T10:06:10.438Z,99.60
2018-09-28T10:08:43.916Z,99.20
2018-09-28T10:11:12.451Z,98.00
2018-09-28T10:13:40.957Z,97.60
2018-09-28T10:16:09.795Z,96.70
2018-09-28T10:18:39.214Z,96.00
2018-09-28T10:21:07.832Z,95.40
2018-09-28T10:23:36.397Z,94.80
2018-09-28T10:26:04.928Z,93.60
2018-09-28T10:28:33.432Z,92.00
2018-09-28T10:31:02.007Z,90.90
2018-09-28T10:33:30.629Z,90.20
2018-09-28T10:35:59.116Z,90.00
2018-09-28T10:38:27.651Z,90.20
2018-09-28T10:40:56.287Z,90.10
2018-09-28T10:43:25.007Z,89.00
2018-09-28T10:45:53.594Z,88.90
2018-09-28T10:48:22.132Z,88.20
2018-09-28T10:50:50.637Z,87.50
2018-09-28T10:53:19.792Z,86.50
2018-09-28T10:55:48.330Z,84.90
2018-09-28T10:58:16.891Z,84.60
2018-09-28T11:00:45.470Z,82.80
2018-09-28T11:03:14.037Z,82.40
2018-09-28T11:05:42.552Z,79.50
2018-09-28T11:08:11.068Z,78.70
2018-09-28T11:13:14.433Z,75.80
2018-09-28T11:15:43.001Z,75.20
2018-09-28T11:18:11.508Z,74.80
2018-09-28T11:20:40.144Z,73.90
2018-09-28T11:23:08.690Z,73.00
2018-09-28T11:25:37.258Z,72.00
2018-09-28T11:28:08.162Z,71.00
2018-09-28T11:30:36.700Z,71.20
2018-09-28T11:33:05.277Z,72.50
2018-09-28T11:35:33.811Z,73.90
2018-09-28T11:38:02.304Z,74.30
2018-09-28T11:40:30.978Z,75.60
2018-09-28T11:42:59.541Z,76.20
2018-09-28T11:45:29.265Z,76.80
2018-09-28T11:47:57.678Z,77.30
2018-09-28T11:50:26.277Z,77.70
2018-09-28T11:52:54.823Z,75.90
2018-09-28T11:55:23.432Z,75.50
2018-09-28T11:57:51.992Z,75.80
2018-09-28T12:00:20.488Z,75.50
2018-09-28T12:02:48.991Z,74.70
2018-09-28T12:05:18.086Z,72.80
2018-09-28T12:07:46.629Z,72.20
2018-09-28T12:10:15.147Z,71.10
2018-09-28T12:12:43.779Z,70.90
2018-09-28T12:15:12.333Z,70.30
2018-09-28T12:17:40.850Z,70.40
2018-09-28T12:20:09.834Z,71.10
2018-09-28T12:22:38.404Z,70.70
2018-09-28T12:25:06.971Z,70.90
2018-09-28T12:27:35.541Z,71.50
2018-09-28T12:30:04.088Z,71.00
2018-09-28T12:32:32.733Z,69.30
2018-09-28T12:35:01.282Z,69.80
2018-09-28T12:37:29.801Z,70.40
2018-09-28T12:39:58.371Z,71.30
2018-09-28T12:42:27.052Z,72.20
2018-09-28T12:44:56.171Z,71.80
2018-09-28T12:47:24.657Z,71.40
2018-09-28T12:49:53.250Z,71.50
2018-09-28T12:52:21.805Z,70.50
2018-09-28T12:54:50.396Z,68.30
2018-09-28T12:57:18.906Z,68.80
2018-09-28T12:59:47.403Z,69.40
2018-09-28T13:02:15.967Z,70.10
2018-09-28T13:04:44.506Z,70.30
2018-09-28T13:07:13.062Z,70.80
2018-09-28T13:09:41.586Z,71.60
2018-09-28T13:12:10.203Z,71.80
2018-09-28T13:14:38.806Z,72.30
2018-09-28T13:17:07.272Z,72.30
2018-09-28T13:19:35.772Z,72.90
2018-09-28T13:22:04.348Z,72.50
2018-09-28T13:24:32.999Z,71.60
2018-09-28T13:27:01.518Z,70.30
2018-09-28T13:34:26.482Z,58.10
2018-09-28T13:36:55.018Z,57.50
2018-09-28T13:39:23.621Z,57.80
2018-09-28T13:41:52.166Z,58.50
2018-09-28T13:44:20.764Z,60.20
2018-09-28T13:46:49.342Z,62.50
2018-09-28T13:49:17.862Z,64.80
2018-09-28T13:51:46.447Z,65.50
2018-09-28T13:54:15.008Z,66.70
2018-09-28T13:56:43.617Z,67.20
2018-09-28T13:59:12.137Z,67.20
2018-09-28T14:01:40.683Z,67.20
2018-09-28T14:04:09.259Z,65.50
2018-09-28T14:06:37.942Z,55.40
2018-09-28T14:09:08.365Z,46.10
2018-09-28T14:11:36.992Z,40.40
2018-09-28T14:14:05.558Z,32.90
2018-09-28T14:16:34.142Z,28.80
2018-09-28T14:19:02.677Z,27.70
2018-09-28T14:21:31.205Z,26.10
2018-09-28T14:23:59.776Z,23.70
2018-09-28T14:26:28.934Z,22.90
2018-09-28T14:28:57.534Z,21.40
2018-09-28T14:31:26.176Z,20.50
2018-09-28T14:33:54.711Z,19.50
2018-09-28T14:36:23.861Z,18.40
2018-09-28T14:38:52.370Z,18.50
2018-09-28T14:41:21.744Z,19.10
2018-09-28T14:43:50.352Z,19.20
2018-09-28T14:46:19.038Z,19.00
2018-09-28T14:48:47.622Z,18.50
2018-09-28T14:51:16.082Z,17.60
2018-09-28T14:53:44.580Z,17.30
2018-09-28T14:56:13.168Z,17.90
2018-09-28T14:58:41.709Z,20.00
2018-09-28T15:01:10.380Z,22.40
2018-09-28T15:03:38.795Z,23.30
2018-09-28T15:06:07.534Z,22.30
2018-09-28T15:08:36.108Z,21.10
2018-09-28T15:11:04.672Z,21.20
2018-09-28T15:13:33.250Z,21.40
2018-09-28T15:16:01.783Z,21.20
2018-09-28T15:18:30.426Z,21.50
2018-09-28T15:20:59.783Z,21.60
2018-09-28T15:23:28.421Z,22.80
2018-09-28T15:25:57.104Z,24.00
2018-09-28T15:28:25.702Z,25.60
2018-09-28T15:30:54.974Z,27.50
2018-09-28T15:33:23.501Z,30.00
2018-09-28T15:35:52.012Z,32.10
2018-09-28T15:38:20.523Z,34.30
2018-09-28T15:40:49.095Z,36.10
2018-09-28T15:43:17.622Z,38.60
2018-09-28T15:45:46.176Z,41.40
2018-09-28T15:48:15.597Z,42.10
2018-09-28T15:50:44.128Z,43.80
2018-09-28T15:53:12.616Z,45.30
2018-09-28T15:55:41.218Z,45.00
2018-09-28T15:58:09.759Z,44.60
2018-09-28T16:00:39.077Z,44.50
2018-09-28T16:03:07.640Z,44.90
2018-09-28T16:05:36.198Z,46.20
2018-09-28T16:08:04.867Z,45.30
2018-09-28T16:10:33.444Z,46.30
2018-09-28T16:13:01.997Z,46.90
2018-09-28T16:15:30.534Z,48.00
2018-09-28T16:17:59.200Z,48.90
2018-09-28T16:20:27.793Z,49.50
2018-09-28T16:22:56.353Z,50.70
2018-09-28T16:25:24.885Z,51.50
2018-09-28T16:27:53.772Z,52.10
2018-09-28T16:30:22.411Z,52.50
2018-09-28T16:32:51.210Z,53.00
2018-09-28T16:37:47.958Z,53.30
2018-09-28T16:40:16.540Z,54.80
2018-09-28T16:42:45.060Z,55.60
2018-09-28T16:45:13.609Z,56.50
2018-09-28T16:47:43.095Z,57.40
2018-09-28T16:50:11.596Z,58.30
2018-09-28T16:52:40.134Z,58.90
2018-09-28T16:55:08.687Z,59.90
2018-09-28T16:57:37.237Z,60.70
2018-09-28T17:00:05.810Z,61.40
2018-09-28T17:02:34.353Z,62.80
2018-09-28T17:05:02.936Z,63.50
2018-09-28T17:07:32.469Z,65.40
2018-09-28T17:10:01.128Z,64.70
2018-09-28T17:12:29.671Z,64.90
2018-09-28T17:14:58.194Z,66.40
2018-09-28T17:17:26.726Z,67.00
2018-09-28T17:19:55.230Z,68.00
2018-09-28T17:22:23.818Z,68.90
2018-09-28T17:24:52.413Z,69.30
2018-09-28T17:27:20.961Z,70.40
2018-09-28T17:29:49.559Z,70.70
2018-09-28T17:34:46.692Z,71.40
2018-09-28T17:37:15.153Z,73.30
2018-09-28T17:39:43.754Z,73.80
2018-09-28T17:42:12.361Z,74.80
2018-09-28T17:44:40.934Z,76.30
2018-09-28T17:47:09.503Z,77.60
2018-09-28T17:49:38.755Z,78.40
2018-09-28T17:52:07.539Z,80.10
2018-09-28T17:54:37.237Z,81.50
2018-09-28T17:57:05.756Z,83.10
2018-09-28T17:59:34.333Z,84.40
2018-09-28T18:02:02.928Z,86.50
2018-09-28T18:04:31.539Z,87.30
2018-09-28T18:07:00.084Z,90.10
2018-09-28T18:09:28.670Z,90.90
2018-09-28T18:11:57.251Z,91.60
2018-09-28T18:14:25.822Z,92.40
2018-09-28T18:16:54.362Z,93.00
2018-09-28T18:19:23.537Z,93.50
2018-09-28T18:21:52.045Z,94.60
2018-09-28T18:24:20.556Z,95.40
2018-09-28T18:26:49.038Z,96.00
2018-09-28T18:29:17.523Z,97.00
2018-09-28T18:34:14.269Z,98.80
2018-09-28T18:36:42.854Z,99.90
2018-09-28T18:39:11.370Z,99.90
2018-09-28T18:41:39.931Z,99.90
2018-09-28T18:44:08.518Z,99.90
2018-09-28T18:46:37.057Z,99.90
2018-09-28T18:49:05.578Z,99.90
2018-09-28T18:51:34.131Z,99.90
2018-09-28T18:54:02.768Z,99.90
2018-09-28T18:56:31.323Z,99.90
2018-09-28T18:58:59.813Z,99.90
2018-09-28T19:01:28.338Z,99.90
2018-09-28T19:03:56.836Z,99.90
2018-09-28T19:06:25.360Z,99.90
2018-09-28T19:08:53.836Z,99.90
2018-09-28T19:11:22.354Z,99.90
2018-09-28T19:13:50.905Z,99.90
2018-09-28T19:16:19.482Z,99.90
2018-09-28T19:18:48.010Z,99.90
2018-09-28T19:21:16.691Z,99.90
2018-09-28T19:23:45.296Z,99.90
2018-09-28T19:26:13.886Z,99.90
2018-09-28T19:28:43.038Z,99.90
2018-09-28T19:31:11.589Z,99.90
2018-09-28T19:33:40.138Z,99.90
2018-09-28T19:36:08.700Z,99.90
2018-09-28T19:38:37.249Z,99.90
2018-09-28T19:41:05.797Z,99.90
2018-09-28T19:43:34.332Z,99.90
2018-09-28T19:46:02.899Z,99.90
2018-09-28T19:48:31.491Z,99.90
2018-09-28T19:51:00.004Z,99.90
2018-09-28T19:53:28.516Z,99.90
2018-09-28T19:55:57.200Z,99.90
2018-09-28T19:58:25.758Z,99.90
2018-09-28T20:00:54.252Z,99.90
2018-09-28T20:03:22.882Z,99.90
2018-09-28T20:05:51.493Z,99.90
2018-09-28T20:08:20.009Z,99.90
2018-09-28T20:10:48.509Z,99.90
2018-09-28T20:13:17.076Z,99.90
2018-09-28T20:15:45.611Z,99.90
2018-09-28T20:18:14.103Z,99.90
2018-09-28T20:20:42.606Z,99.90
2018-09-28T20:23:11.155Z,99.90
2018-09-28T20:25:39.702Z,99.90
2018-09-28T20:28:08.204Z,99.90
2018-09-28T20:30:36.710Z,99.90
2018-09-28T20:33:05.255Z,99.90
2018-09-28T20:35:33.761Z,99.90
2018-09-28T20:38:02.332Z,99.90
2018-09-28T20:40:30.788Z,99.90
2018-09-28T20:42:59.307Z,99.90
2018-09-28T20:45:27.815Z,99.90
2018-09-28T20:47:56.328Z,99.90
2018-09-28T20:50:24.857Z,99.90
2018-09-28T20:52:53.412Z,99.90
2018-09-28T20:55:21.996Z,99.90
2018-09-28T20:57:50.498Z,99.90
2018-09-28T21:00:19.068Z,99.90
2018-09-28T21:02:47.653Z,99.90
2018-09-28T21:05:16.187Z,99.90
2018-09-28T21:07:44.756Z,99.90
2018-09-28T21:10:13.318Z,99.90
2018-09-28T21:12:41.865Z,99.90
2018-09-28T21:15:10.393Z,99.90
2018-09-28T21:17:38.922Z,99.90
2018-09-28T21:20:07.435Z,99.90
2018-09-28T21:22:35.922Z,99.90
2018-09-28T21:25:04.600Z,99.90
2018-09-28T21:27:33.094Z,99.90
2018-09-28T21:30:01.714Z,99.90
2018-09-28T21:32:30.259Z,99.90
2018-09-28T21:34:58.823Z,99.90
2018-09-28T21:37:27.353Z,99.90
2018-09-28T21:39:55.919Z,99.90
2018-09-28T21:42:24.487Z,99.90
2018-09-28T21:44:53.035Z,99.90
2018-09-28T21:47:21.583Z,99.90
2018-09-28T21:49:50.163Z,99.90
2018-09-28T21:52:18.678Z,99.90
2018-09-28T21:54:47.222Z,99.90
2018-09-28T21:57:15.742Z,99.90
2018-09-28T21:59:44.254Z,99.90
2018-09-28T22:02:12.750Z,99.90
2018-09-28T22:04:41.306Z,99.90
2018-09-28T22:07:09.858Z,99.90
2018-09-28T22:09:38.339Z,99.90
2018-09-28T22:12:07.439Z,99.90
2018-09-28T22:14:35.936Z,99.90
2018-09-28T22:17:04.482Z,99.90
2018-09-28T22:19:33.022Z,99.90
2018-09-28T22:22:01.558Z,99.90
2018-09-28T22:24:30.183Z,99.90
2018-09-28T22:26:58.714Z,99.90
2018-09-28T22:29:27.276Z,99.90
2018-09-28T22:31:55.822Z,99.90
2018-09-28T22:36:52.515Z,99.90
2018-09-28T22:39:21.107Z,99.90
2018-09-28T22:41:49.637Z,99.90
2018-09-28T22:44:18.154Z,99.90
2018-09-28T22:46:46.714Z,99.90
2018-09-28T22:49:15.917Z,99.90
2018-09-28T22:51:44.979Z,99.90
2018-09-28T22:54:13.577Z,99.90
2018-09-28T22:56:42.179Z,99.90
2018-09-28T22:59:10.720Z,99.90
2018-09-28T23:01:39.882Z,99.90
2018-09-28T23:04:09.078Z,99.90
2018-09-28T23:06:37.701Z,99.90
2018-09-28T23:09:07.605Z,99.90
2018-09-28T23:11:36.096Z,99.90
2018-09-28T23:14:04.714Z,99.90
2018-09-28T23:16:33.380Z,99.90
2018-09-28T23:19:02.339Z,99.90
2018-09-28T23:21:30.895Z,99.90
2018-09-28T23:23:59.398Z,99.90
2018-09-28T23:26:27.886Z,99.90
2018-09-28T23:28:56.401Z,99.90
2018-09-28T23:31:25.005Z,99.90
2018-09-28T23:33:53.601Z,99.90
2018-09-28T23:36:22.101Z,99.90
2018-09-28T23:38:50.623Z,99.90
2018-09-28T23:41:19.095Z,99.90
2018-09-28T23:43:47.685Z,99.90
2018-09-28T23:46:16.454Z,99.90
2018-09-28T23:48:45.027Z,99.90
2018-09-28T23:51:13.557Z,99.90
2018-09-28T23:53:42.100Z,99.90
2018-09-28T23:56:10.704Z,99.90
2018-09-28T23:58:39.238Z,99.90
